Time;durP1;ratioP1;P1;durP2;ratioP2;P2;SDS_P1;SDS_P2;PMS_P1;PMS_P2;Temp;Humidity;BMP_temperature;BMP_pressure;BME280_temperature;BME280_humidity;BME280_pressure;Samples;Min_cycle;Max_cycle;Signal;HPM_P1;HPM_P2
2023/08/06 00:00:16;;;;;;;1.25;0.60;;;15.00;99.90;;;;;;5024553;28;20038;-81
2023/08/06 00:02:42;;;;;;;2.10;0.70;;;15.00;99.90;;;;;;5024883;28;20048;-88
2023/08/06 00:05:08;;;;;;;3.78;0.98;;;15.00;99.90;;;;;;5008148;28;20465;-88
2023/08/06 00:07:33;;;;;;;1.73;0.70;;;15.00;99.90;;;;;;5023166;28;20079;-86
2023/08/06 00:09:59;;;;;;;2.25;0.70;;;15.00;99.90;;;;;;5022423;28;20017;-86
2023/08/06 00:12:25;;;;;;;1.63;0.98;;;15.00;99.90;;;;;;5024759;28;20034;-87
2023/08/06 00:14:52;;;;;;;2.55;0.98;;;15.00;99.90;;;;;;5027312;28;20535;-88
2023/08/06 00:17:18;;;;;;;1.50;0.80;;;15.00;99.90;;;;;;5041626;28;20516;-84
2023/08/06 00:19:44;;;;;;;3.30;0.90;;;15.00;99.90;;;;;;5025672;28;20121;-81
2023/08/06 00:22:10;;;;;;;2.60;0.93;;;15.00;99.90;;;;;;5033373;28;20022;-88
2023/08/06 00:24:36;;;;;;;2.58;1.20;;;15.00;99.90;;;;;;5029478;28;20022;-85
2023/08/06 00:27:02;;;;;;;2.00;1.00;;;15.00;99.90;;;;;;5024169;28;20489;-88
2023/08/06 00:29:27;;;;;;;2.20;1.33;;;15.00;99.90;;;;;;5009470;28;20022;-87
2023/08/06 00:31:53;;;;;;;3.47;1.02;;;15.00;99.90;;;;;;5026259;28;20037;-86
2023/08/06 00:34:19;;;;;;;2.15;1.15;;;15.00;99.90;;;;;;5010098;28;20112;-86
2023/08/06 00:36:45;;;;;;;1.58;0.90;;;15.00;99.90;;;;;;5024297;28;20029;-89
2023/08/06 00:39:11;;;;;;;2.35;1.17;;;15.00;99.90;;;;;;5006425;28;20053;-89
2023/08/06 00:41:36;;;;;;;3.13;1.17;;;15.00;99.90;;;;;;5023796;28;20384;-90
2023/08/06 00:44:02;;;;;;;1.73;0.90;;;15.00;99.90;;;;;;5007555;28;20029;-88
2023/08/06 00:46:28;;;;;;;1.90;0.80;;;15.00;99.90;;;;;;5027145;28;20581;-90
2023/08/06 00:48:55;;;;;;;2.50;0.98;;;15.00;99.90;;;;;;5018887;28;20033;-89
2023/08/06 00:51:22;;;;;;;1.88;1.13;;;15.10;99.90;;;;;;5024433;28;20025;-88
2023/08/06 00:53:49;;;;;;;2.58;1.60;;;15.00;99.90;;;;;;5006285;28;20430;-87
2023/08/06 00:56:15;;;;;;;1.90;1.00;;;15.00;99.90;;;;;;5023033;28;20060;-90
2023/08/06 00:58:41;;;;;;;2.38;1.13;;;15.00;99.90;;;;;;5007317;28;20469;-80
2023/08/06 01:01:07;;;;;;;2.80;1.15;;;15.00;99.90;;;;;;5023678;28;20036;-88
2023/08/06 01:03:32;;;;;;;2.25;1.40;;;15.00;99.90;;;;;;5023545;28;20041;-89
2023/08/06 01:06:00;;;;;;;2.20;1.20;;;15.00;99.90;;;;;;5011885;28;20018;-81
2023/08/06 01:08:54;;;;;;;2.13;1.00;;;15.00;99.90;;;;;;5019460;28;20080;-87
2023/08/06 01:11:19;;;;;;;3.38;1.33;;;15.00;99.90;;;;;;5024539;28;20658;-88
2023/08/06 01:13:54;;;;;;;2.83;0.88;;;15.00;99.90;;;;;;5006410;28;20048;-89
2023/08/06 01:16:21;;;;;;;1.60;0.70;;;15.00;99.90;;;;;;5020718;28;20076;-86
2023/08/06 01:18:49;;;;;;;2.20;1.17;;;15.00;99.90;;;;;;5039917;28;20033;-88
2023/08/06 01:21:17;;;;;;;1.55;0.75;;;15.10;99.90;;;;;;5022499;28;20385;-87
2023/08/06 01:23:43;;;;;;;2.20;1.00;;;15.00;99.90;;;;;;5020987;28;20441;-89
2023/08/06 01:26:12;;;;;;;2.50;1.13;;;15.00;99.90;;;;;;5005967;28;20030;-85
2023/08/06 01:28:42;;;;;;;1.83;1.20;;;15.10;99.90;;;;;;5009512;28;20092;-83
2023/08/06 01:31:15;;;;;;;2.55;1.60;;;15.10;99.90;;;;;;5004116;28;20046;-78
2023/08/06 01:33:44;;;;;;;2.85;1.35;;;15.10;99.90;;;;;;5023561;28;20441;-89
2023/08/06 01:36:11;;;;;;;2.20;1.50;;;15.10;99.90;;;;;;5042039;28;20489;-84
2023/08/06 01:38:36;;;;;;;2.47;1.40;;;15.10;99.90;;;;;;5023501;28;20108;-86
2023/08/06 01:41:02;;;;;;;3.22;1.83;;;15.10;99.90;;;;;;5031128;28;20116;-88
2023/08/06 01:43:28;;;;;;;2.47;1.75;;;15.10;99.90;;;;;;5039974;28;20022;-86
2023/08/06 01:45:53;;;;;;;2.42;1.48;;;15.00;99.90;;;;;;5006782;28;20556;-89
2023/08/06 01:48:19;;;;;;;2.55;1.83;;;15.00;99.90;;;;;;5026885;28;20484;-87
2023/08/06 01:50:44;;;;;;;2.63;1.77;;;15.00;99.90;;;;;;5006221;28;20083;-90
2023/08/06 01:53:10;;;;;;;2.35;1.38;;;15.00;99.90;;;;;;5006502;28;20124;-90
2023/08/06 01:55:36;;;;;;;1.92;1.17;;;15.00;99.90;;;;;;5006999;28;20067;-88
2023/08/06 01:58:01;;;;;;;2.30;1.35;;;15.00;99.90;;;;;;5024333;28;20025;-88
2023/08/06 02:00:28;;;;;;;2.70;1.80;;;15.00;99.90;;;;;;5003849;28;20018;-89
2023/08/06 02:02:54;;;;;;;2.00;1.27;;;15.00;99.90;;;;;;5024045;28;20056;-83
2023/08/06 02:05:20;;;;;;;2.13;1.45;;;15.10;99.90;;;;;;5030637;28;20432;-86
2023/08/06 02:07:45;;;;;;;2.25;1.42;;;15.00;99.90;;;;;;5012681;28;20057;-88
2023/08/06 02:10:11;;;;;;;1.75;1.02;;;15.00;99.90;;;;;;5022110;28;20425;-89
2023/08/06 02:12:37;;;;;;;2.40;1.52;;;15.00;99.90;;;;;;5024029;28;20037;-88
2023/08/06 02:15:04;;;;;;;2.20;1.00;;;15.00;99.90;;;;;;5023337;28;20160;-89
2023/08/06 02:17:29;;;;;;;2.28;1.35;;;15.00;99.90;;;;;;5022988;28;20061;-84
2023/08/06 02:19:55;;;;;;;1.80;1.02;;;15.00;99.90;;;;;;5026095;28;20064;-90
2023/08/06 02:22:22;;;;;;;2.75;1.58;;;15.00;99.90;;;;;;5009255;28;20608;-82
2023/08/06 02:24:49;;;;;;;2.00;1.45;;;15.00;99.90;;;;;;5009846;28;20029;-88
2023/08/06 02:27:15;;;;;;;2.03;1.27;;;15.00;99.90;;;;;;5025067;28;20089;-89
2023/08/06 02:29:41;;;;;;;2.40;1.45;;;15.00;99.90;;;;;;5010243;28;20108;-85
2023/08/06 02:32:07;;;;;;;2.60;1.63;;;15.00;99.90;;;;;;5034429;28;20065;-86
2023/08/06 02:34:33;;;;;;;2.50;1.50;;;15.10;99.90;;;;;;5036753;28;20030;-89
2023/08/06 02:36:58;;;;;;;3.28;1.63;;;15.00;99.90;;;;;;5026460;28;20018;-87
2023/08/06 02:39:25;;;;;;;2.47;1.40;;;15.00;99.90;;;;;;5004615;28;20540;-86
2023/08/06 02:41:51;;;;;;;2.97;1.58;;;15.00;99.90;;;;;;5009402;28;20022;-88
2023/08/06 02:44:16;;;;;;;2.42;1.27;;;15.00;99.90;;;;;;5027946;28;20129;-87
2023/08/06 02:46:44;;;;;;;2.15;1.63;;;15.00;99.90;;;;;;5023153;28;20040;-88
2023/08/06 02:49:10;;;;;;;1.83;1.02;;;15.00;99.90;;;;;;5009152;28;20358;-82
2023/08/06 02:51:36;;;;;;;2.65;1.42;;;15.00;99.90;;;;;;5028221;28;20044;-88
2023/08/06 02:54:02;;;;;;;2.25;1.10;;;15.00;99.90;;;;;;5011594;28;20430;-89
2023/08/06 02:56:28;;;;;;;2.55;1.40;;;15.00;99.90;;;;;;5019962;28;20042;-86
2023/08/06 02:59:11;;;;;;;2.88;1.38;;;15.00;99.90;;;;;;5024834;28;20052;-89
2023/08/06 03:01:52;;;;;;;1.80;1.10;;;15.00;99.90;;;;;;5008922;28;20048;-89
2023/08/06 03:04:25;;;;;;;2.30;1.10;;;15.00;99.90;;;;;;5027340;28;20038;-87
2023/08/06 03:06:51;;;;;;;4.47;1.15;;;15.00;99.90;;;;;;5016404;28;20083;-87
2023/08/06 03:09:18;;;;;;;2.40;1.60;;;15.00;99.90;;;;;;5008654;28;20036;-88
2023/08/06 03:11:44;;;;;;;2.03;1.23;;;15.00;99.90;;;;;;5024300;28;20043;-84
2023/08/06 03:14:13;;;;;;;2.87;1.70;;;15.10;99.90;;;;;;5006921;28;20429;-88
2023/08/06 03:16:39;;;;;;;2.60;1.35;;;15.10;99.90;;;;;;5008776;28;20022;-86
2023/08/06 03:19:05;;;;;;;3.17;1.60;;;15.00;99.90;;;;;;5029409;28;20079;-86
2023/08/06 03:21:30;;;;;;;2.40;1.40;;;15.10;99.90;;;;;;5012254;28;20026;-81
2023/08/06 03:23:57;;;;;;;1.80;1.02;;;15.00;99.90;;;;;;5008019;28;20118;-88
2023/08/06 03:26:26;;;;;;;2.72;1.83;;;15.00;99.90;;;;;;5011568;28;20040;-88
2023/08/06 03:28:52;;;;;;;3.15;1.48;;;15.10;99.90;;;;;;5026256;28;20022;-84
2023/08/06 03:31:18;;;;;;;3.30;1.77;;;15.10;99.90;;;;;;5011650;28;20053;-88
2023/08/06 03:33:45;;;;;;;2.08;1.00;;;15.10;99.90;;;;;;5010154;28;20030;-88
2023/08/06 03:36:16;;;;;;;2.40;1.73;;;15.10;99.90;;;;;;5018199;28;20048;-88
2023/08/06 03:38:42;;;;;;;3.55;1.27;;;15.10;99.90;;;;;;5026474;28;20457;-86
2023/08/06 03:41:10;;;;;;;2.92;1.55;;;15.00;99.90;;;;;;5025202;28;20033;-85
2023/08/06 03:43:35;;;;;;;2.00;1.00;;;15.00;99.90;;;;;;5035873;28;20030;-86
2023/08/06 03:46:04;;;;;;;2.13;1.10;;;15.10;99.90;;;;;;5009480;28;20080;-82
2023/08/06 03:48:31;;;;;;;2.33;0.80;;;15.00;99.90;;;;;;5011561;28;20025;-87
2023/08/06 03:50:57;;;;;;;2.15;1.40;;;15.10;99.90;;;;;;5027378;28;20030;-85
2023/08/06 03:53:25;;;;;;;2.22;1.20;;;15.10;99.90;;;;;;5010368;28;20041;-87
2023/08/06 03:55:50;;;;;;;2.60;1.42;;;15.00;99.90;;;;;;5028037;28;20032;-88
2023/08/06 03:58:16;;;;;;;3.15;1.38;;;15.10;99.90;;;;;;5025533;28;20108;-86
2023/08/06 04:00:42;;;;;;;2.20;1.20;;;15.10;99.90;;;;;;5028415;28;20030;-85
2023/08/06 04:03:07;;;;;;;2.10;1.38;;;15.00;99.90;;;;;;5008002;28;20121;-82
2023/08/06 04:05:33;;;;;;;2.10;1.30;;;15.00;99.90;;;;;;5023592;28;20061;-88
2023/08/06 04:07:59;;;;;;;2.40;1.38;;;15.00;99.90;;;;;;5015133;28;20108;-85
2023/08/06 04:10:25;;;;;;;2.88;1.08;;;15.10;99.90;;;;;;5009772;28;20052;-88
2023/08/06 04:13:07;;;;;;;2.38;1.33;;;15.00;99.90;;;;;;5048108;28;20831;-87
2023/08/06 04:15:34;;;;;;;2.95;1.48;;;15.00;99.90;;;;;;5025765;28;20079;-89
2023/08/06 04:17:59;;;;;;;2.97;1.13;;;15.00;99.90;;;;;;5034080;28;20021;-87
2023/08/06 04:20:25;;;;;;;3.72;1.08;;;15.00;99.90;;;;;;5025876;28;20033;-84
2023/08/06 04:22:51;;;;;;;3.10;1.40;;;15.00;99.90;;;;;;5043356;28;20060;-87
2023/08/06 04:25:20;;;;;;;2.08;1.40;;;15.00;99.90;;;;;;5064022;28;20045;-83
2023/08/06 04:27:47;;;;;;;;;;;15.00;99.90;;;;;;5042224;28;20068;-89
2023/08/06 04:30:13;;;;;;;1.80;0.80;;;15.00;99.90;;;;;;5050093;28;19913;-90
2023/08/06 04:32:40;;;;;;;2.85;1.20;;;15.00;99.90;;;;;;5021887;28;20033;-82
2023/08/06 04:35:06;;;;;;;2.28;1.27;;;15.00;99.90;;;;;;5043969;28;20384;-86
2023/08/06 04:37:32;;;;;;;2.00;1.23;;;15.10;99.90;;;;;;5041506;28;20106;-89
2023/08/06 04:39:58;;;;;;;1.88;1.05;;;15.10;99.90;;;;;;5050834;28;20125;-83
2023/08/06 04:42:24;;;;;;;2.05;1.30;;;15.10;99.90;;;;;;5032932;28;20038;-90
2023/08/06 04:44:50;;;;;;;2.22;1.38;;;15.10;99.90;;;;;;5043695;28;20424;-89
2023/08/06 04:47:16;;;;;;;3.47;0.98;;;15.10;99.90;;;;;;5056296;28;20691;-88
2023/08/06 04:49:41;;;;;;;1.75;1.00;;;15.10;99.90;;;;;;5041846;28;20029;-83
2023/08/06 04:52:07;;;;;;;1.92;1.15;;;15.20;99.90;;;;;;5056038;28;20048;-89
2023/08/06 04:54:33;;;;;;;2.25;1.45;;;15.20;99.90;;;;;;5034478;28;20026;-90
2023/08/06 04:56:59;;;;;;;1.90;1.42;;;15.20;99.90;;;;;;5036870;28;20061;-89
2023/08/06 04:59:25;;;;;;;2.10;1.25;;;15.20;99.90;;;;;;5039017;28;20086;-89
2023/08/06 05:01:50;;;;;;;2.30;1.20;;;15.30;99.90;;;;;;5025923;28;20115;-90
2023/08/06 05:04:16;;;;;;;4.20;1.58;;;15.20;99.90;;;;;;5020195;28;20037;-90
2023/08/06 05:06:42;;;;;;;3.35;1.42;;;15.30;99.90;;;;;;5041722;28;20030;-89
2023/08/06 05:09:08;;;;;;;3.67;1.95;;;15.20;99.90;;;;;;5049546;28;20487;-88
2023/08/06 05:11:33;;;;;;;2.50;1.02;;;15.20;99.90;;;;;;5064055;28;20072;-85
2023/08/06 05:13:59;;;;;;;2.20;1.38;;;15.20;99.90;;;;;;5065537;28;20079;-89
2023/08/06 05:16:25;;;;;;;1.75;0.98;;;15.20;99.90;;;;;;5064493;28;20029;-85
2023/08/06 05:18:50;;;;;;;2.08;1.05;;;15.20;99.90;;;;;;5042230;28;20029;-89
2023/08/06 05:21:16;;;;;;;2.05;1.13;;;15.30;99.90;;;;;;5052461;28;20342;-90
2023/08/06 05:23:43;;;;;;;3.88;2.10;;;15.30;99.90;;;;;;5026274;28;20030;-88
2023/08/06 05:26:08;;;;;;;2.25;1.45;;;15.20;99.90;;;;;;5005649;28;20070;-81
2023/08/06 05:28:34;;;;;;;3.42;1.95;;;15.30;99.90;;;;;;5024640;28;20034;-87
2023/08/06 05:31:04;;;;;;;2.78;1.58;;;15.20;99.90;;;;;;5036202;28;20069;-88
2023/08/06 05:33:30;;;;;;;2.58;1.73;;;15.30;99.90;;;;;;5012509;28;20029;-86
2023/08/06 05:35:56;;;;;;;4.13;2.25;;;15.20;99.90;;;;;;5024110;28;20030;-89
2023/08/06 05:38:22;;;;;;;3.15;1.90;;;15.30;99.90;;;;;;5028281;28;20080;-87
2023/08/06 05:40:48;;;;;;;3.30;2.28;;;15.30;99.90;;;;;;5023748;28;20029;-89
2023/08/06 05:43:14;;;;;;;2.40;1.63;;;15.30;99.90;;;;;;5003975;28;20038;-86
2023/08/06 05:45:45;;;;;;;3.30;2.22;;;15.40;99.90;;;;;;5025613;28;20026;-88
2023/08/06 05:48:10;;;;;;;2.90;2.10;;;15.50;99.90;;;;;;5043494;28;20034;-89
2023/08/06 05:50:36;;;;;;;2.83;1.70;;;15.50;99.90;;;;;;5017656;28;20026;-90
2023/08/06 05:53:02;;;;;;;2.35;2.03;;;15.50;99.90;;;;;;5030008;28;20124;-88
2023/08/06 05:55:27;;;;;;;3.25;2.10;;;15.60;99.90;;;;;;5024741;28;20033;-88
2023/08/06 05:57:53;;;;;;;3.30;2.63;;;15.60;99.90;;;;;;5019721;28;20648;-88
2023/08/06 06:00:20;;;;;;;3.53;2.38;;;15.70;99.90;;;;;;5027398;28;20493;-88
2023/08/06 06:02:46;;;;;;;2.90;2.55;;;15.80;99.90;;;;;;5019003;28;20026;-89
2023/08/06 06:05:11;;;;;;;4.78;3.05;;;15.90;99.90;;;;;;5051723;28;20030;-89
2023/08/06 06:07:37;;;;;;;3.25;2.33;;;16.00;99.90;;;;;;5018306;28;20064;-88
2023/08/06 06:10:03;;;;;;;3.95;2.97;;;16.10;99.90;;;;;;5005832;28;20470;-89
2023/08/06 06:12:28;;;;;;;3.03;2.72;;;16.10;99.90;;;;;;5021320;28;20498;-88
2023/08/06 06:14:54;;;;;;;1.55;0.85;;;16.20;99.90;;;;;;5004431;28;20038;-86
2023/08/06 06:17:20;;;;;;;4.30;2.83;;;16.20;99.90;;;;;;5013807;28;20042;-88
2023/08/06 06:19:46;;;;;;;6.57;3.70;;;16.20;99.90;;;;;;5019087;28;20060;-89
2023/08/06 06:22:12;;;;;;;3.88;3.45;;;16.20;99.90;;;;;;5049132;28;20084;-88
2023/08/06 06:24:38;;;;;;;4.50;3.60;;;16.20;99.90;;;;;;5013495;28;20070;-87
2023/08/06 06:27:04;;;;;;;5.32;4.80;;;16.20;99.90;;;;;;5016741;28;20037;-86
2023/08/06 06:29:30;;;;;;;6.55;5.47;;;16.20;99.90;;;;;;5020818;28;20034;-88
2023/08/06 06:31:55;;;;;;;6.78;5.63;;;16.30;99.90;;;;;;5002013;28;20048;-87
2023/08/06 06:34:22;;;;;;;6.28;5.70;;;16.20;99.90;;;;;;5012324;28;20387;-83
2023/08/06 06:36:47;;;;;;;6.88;5.85;;;16.30;99.90;;;;;;5016325;28;20112;-86
2023/08/06 06:39:13;;;;;;;5.85;5.30;;;16.20;99.90;;;;;;5015274;28;20021;-83
2023/08/06 06:41:39;;;;;;;13.13;11.73;;;16.20;99.90;;;;;;5050221;28;20032;-89
2023/08/06 06:44:16;;;;;;;10.77;9.68;;;16.00;99.90;;;;;;5009115;28;20496;-89
2023/08/06 06:46:42;;;;;;;10.32;8.40;;;15.90;99.90;;;;;;5016469;28;20041;-89
2023/08/06 06:49:07;;;;;;;9.60;8.60;;;16.00;99.90;;;;;;5021550;28;20069;-88
2023/08/06 06:51:33;;;;;;;6.03;5.45;;;16.10;99.90;;;;;;5013072;28;20478;-90
2023/08/06 06:53:59;;;;;;;7.70;6.97;;;16.10;99.90;;;;;;5005081;28;20036;-86
2023/08/06 06:56:24;;;;;;;6.22;5.63;;;16.00;99.90;;;;;;5013988;28;20466;-88
2023/08/06 06:58:50;;;;;;;8.40;7.25;;;16.20;99.90;;;;;;5007011;28;20029;-89
2023/08/06 07:01:15;;;;;;;7.55;6.78;;;16.10;99.90;;;;;;5021102;28;20033;-88
2023/08/06 07:03:41;;;;;;;10.90;9.80;;;16.20;99.90;;;;;;5039421;28;20025;-88
2023/08/06 07:06:07;;;;;;;12.68;11.30;;;16.10;99.90;;;;;;5006001;28;20034;-84
2023/08/06 07:08:33;;;;;;;11.18;9.98;;;16.00;99.90;;;;;;5015453;28;20068;-88
2023/08/06 07:11:03;;;;;;;10.40;9.40;;;16.00;99.90;;;;;;5033530;28;20037;-85
2023/08/06 07:13:29;;;;;;;8.57;7.72;;;16.20;99.90;;;;;;5010048;28;20029;-84
2023/08/06 07:15:55;;;;;;;7.65;6.95;;;16.30;99.90;;;;;;5033347;28;20493;-88
2023/08/06 07:18:22;;;;;;;11.48;10.32;;;16.30;99.90;;;;;;5015406;28;20033;-87
2023/08/06 07:20:52;;;;;;;10.02;8.85;;;16.20;99.90;;;;;;4999278;28;20037;-85
2023/08/06 07:23:21;;;;;;;;;;;16.20;99.90;;;;;;5016777;28;20033;-82
2023/08/06 07:25:47;;;;;;;10.25;9.35;;;16.10;99.90;;;;;;5016515;28;20293;-87
2023/08/06 07:28:14;;;;;;;8.88;7.97;;;16.20;99.90;;;;;;5016857;28;20041;-83
2023/08/06 07:30:41;;;;;;;12.23;11.02;;;16.20;99.90;;;;;;5011625;28;20394;-86
2023/08/06 07:33:06;;;;;;;10.68;9.65;;;16.20;99.90;;;;;;5016171;28;20038;-86
2023/08/06 07:35:33;;;;;;;13.30;12.10;;;16.20;99.90;;;;;;5014268;28;20021;-82
2023/08/06 07:37:58;;;;;;;13.48;12.10;;;16.10;99.90;;;;;;5006168;28;20030;-85
2023/08/06 07:40:24;;;;;;;12.25;11.05;;;16.20;99.90;;;;;;5048422;28;20044;-84
2023/08/06 07:42:50;;;;;;;14.60;13.10;;;16.30;99.90;;;;;;5015165;28;20025;-86
2023/08/06 07:45:15;;;;;;;13.18;11.88;;;16.20;99.90;;;;;;5018070;28;20037;-82
2023/08/06 07:47:42;;;;;;;11.77;10.57;;;16.20;99.90;;;;;;5013613;28;20022;-84
2023/08/06 07:50:09;;;;;;;13.63;12.25;;;16.30;99.90;;;;;;5021349;28;20473;-85
2023/08/06 07:52:35;;;;;;;14.23;12.82;;;16.30;99.90;;;;;;5004819;28;20049;-81
2023/08/06 07:55:04;;;;;;;16.42;14.65;;;16.40;99.90;;;;;;5012449;28;20060;-86
2023/08/06 07:57:31;;;;;;;16.77;15.17;;;16.30;99.90;;;;;;5015522;28;20029;-84
2023/08/06 07:59:56;;;;;;;15.77;14.20;;;16.20;99.90;;;;;;5013843;28;20393;-86
2023/08/06 08:02:23;;;;;;;13.68;12.38;;;16.20;99.90;;;;;;4997536;28;20121;-86
2023/08/06 08:04:48;;;;;;;14.00;12.60;;;16.30;99.90;;;;;;5012094;28;20124;-84
2023/08/06 08:07:14;;;;;;;14.00;12.52;;;16.40;99.90;;;;;;5020274;28;20429;-86
2023/08/06 08:09:40;;;;;;;12.30;11.10;;;16.40;99.90;;;;;;5016802;28;20030;-84
2023/08/06 08:12:06;;;;;;;14.02;12.57;;;16.40;99.90;;;;;;5013521;28;20057;-85
2023/08/06 08:14:36;;;;;;;12.38;11.07;;;16.40;99.90;;;;;;5017725;28;20034;-88
2023/08/06 08:17:03;;;;;;;12.43;11.13;;;16.50;99.90;;;;;;5028681;28;20048;-88
2023/08/06 08:19:29;;;;;;;11.48;10.10;;;16.40;99.90;;;;;;5020336;28;20072;-82
2023/08/06 08:21:55;;;;;;;9.18;8.18;;;16.30;99.90;;;;;;5009838;28;20429;-86
2023/08/06 08:24:23;;;;;;;8.65;7.85;;;16.30;99.90;;;;;;5001180;28;20030;-85
2023/08/06 08:26:50;;;;;;;8.10;7.40;;;16.30;99.90;;;;;;5018930;28;20057;-81
2023/08/06 08:34:39;;;;;;;8.80;7.90;;;16.10;99.90;;;;;;5282404;23;20560;-88
2023/08/06 08:37:06;;;;;;;6.85;6.25;;;16.10;99.90;;;;;;4993633;28;20022;-88
2023/08/06 08:39:31;;;;;;;6.60;6.00;;;16.10;99.90;;;;;;4994088;28;20112;-85
2023/08/06 08:41:57;;;;;;;4.97;4.57;;;16.20;99.90;;;;;;4994807;28;20549;-87
2023/08/06 08:44:28;;;;;;;7.78;7.05;;;16.30;99.90;;;;;;4976313;28;20436;-87
2023/08/06 08:46:53;;;;;;;5.05;4.65;;;16.30;99.90;;;;;;4993969;28;20081;-88
2023/08/06 08:49:23;;;;;;;8.35;7.65;;;16.50;99.90;;;;;;4979018;28;20038;-88
2023/08/06 08:51:52;;;;;;;7.00;6.40;;;16.50;99.90;;;;;;4991649;28;20038;-87
2023/08/06 08:54:19;;;;;;;9.17;8.37;;;16.70;99.90;;;;;;4985272;28;20121;-86
2023/08/06 08:56:46;;;;;;;9.32;8.43;;;16.50;99.90;;;;;;4991195;28;20114;-86
2023/08/06 08:59:11;;;;;;;7.53;6.78;;;16.60;99.90;;;;;;4995616;28;20478;-86
2023/08/06 09:01:40;;;;;;;8.48;7.63;;;16.80;99.90;;;;;;4994840;28;20085;-86
2023/08/06 09:04:06;;;;;;;10.20;9.20;;;16.80;99.90;;;;;;4997657;28;20518;-88
2023/08/06 09:06:36;;;;;;;5.75;5.25;;;16.70;99.90;;;;;;4987117;28;20492;-88
2023/08/06 09:09:14;;;;;;;9.00;8.10;;;16.80;99.90;;;;;;4995155;28;20075;-84
2023/08/06 09:11:44;;;;;;;8.18;7.47;;;16.80;99.90;;;;;;4997849;28;20030;-87
2023/08/06 09:14:11;;;;;;;8.27;7.45;;;16.90;99.90;;;;;;5001523;28;20034;-87
2023/08/06 09:16:37;;;;;;;7.03;6.32;;;16.90;99.90;;;;;;5001707;28;20726;-83
2023/08/06 09:19:15;;;;;;;7.03;6.13;;;17.00;99.90;;;;;;4998756;28;20034;-85
2023/08/06 09:21:42;;;;;;;5.22;4.72;;;17.00;99.90;;;;;;4995458;28;20026;-87
2023/08/06 09:24:09;;;;;;;6.68;6.00;;;17.10;99.90;;;;;;4997067;28;20112;-86
2023/08/06 09:26:36;;;;;;;4.65;4.25;;;17.10;99.90;;;;;;4993972;28;20034;-84
2023/08/06 09:29:01;;;;;;;6.43;5.82;;;17.20;99.90;;;;;;5001404;28;20362;-87
2023/08/06 09:31:48;;;;;;;9.40;5.75;;;17.30;99.90;;;;;;4999915;28;20044;-85
2023/08/06 09:34:17;;;;;;;7.00;6.30;;;17.40;99.90;;;;;;4999509;28;20030;-86
2023/08/06 09:36:47;;;;;;;4.90;4.15;;;17.40;99.90;;;;;;4993826;28;20497;-83
2023/08/06 09:39:16;;;;;;;6.50;5.88;;;17.70;99.90;;;;;;4993692;28;20512;-85
2023/08/06 09:41:42;;;;;;;;;;;17.70;99.90;;;;;;4985847;28;20030;-83
2023/08/06 09:44:17;;;;;;;4.32;3.92;;;17.50;99.90;;;;;;4995008;28;19978;-86
2023/08/06 09:46:47;;;;;;;6.22;5.43;;;17.60;99.90;;;;;;4984983;28;20042;-87
2023/08/06 09:49:12;;;;;;;5.03;4.60;;;17.60;99.90;;;;;;4995521;28;20022;-87
2023/08/06 09:51:39;;;;;;;6.03;5.47;;;17.70;99.90;;;;;;4994751;28;20041;-87
2023/08/06 09:54:07;;;;;;;8.25;7.45;;;17.60;99.90;;;;;;4983675;28;20041;-85
2023/08/06 09:56:37;;;;;;;7.50;6.50;;;17.40;99.90;;;;;;4985067;28;20482;-86
2023/08/06 09:59:06;;;;;;;8.40;7.30;;;17.10;99.90;;;;;;4987245;28;20117;-87
2023/08/06 10:01:34;;;;;;;8.20;7.28;;;17.00;99.90;;;;;;4981727;28;20045;-86
2023/08/06 10:04:03;;;;;;;10.52;8.00;;;16.90;99.90;;;;;;4995947;28;20034;-86
2023/08/06 10:06:29;;;;;;;9.23;8.30;;;16.90;99.90;;;;;;5005557;28;20118;-88
2023/08/06 10:08:55;;;;;;;10.43;9.45;;;16.90;99.90;;;;;;4998629;28;20030;-86
2023/08/06 10:11:27;;;;;;;9.02;8.23;;;16.70;99.90;;;;;;4993194;28;20035;-82
2023/08/06 10:14:02;;;;;;;7.65;6.90;;;16.70;99.90;;;;;;4991747;28;20057;-89
2023/08/06 10:16:29;;;;;;;7.35;6.50;;;16.70;99.90;;;;;;5003566;28;20035;-93
2023/08/06 10:18:56;;;;;;;7.78;7.07;;;16.60;99.90;;;;;;4995450;28;20030;-84
2023/08/06 10:21:24;;;;;;;7.65;6.75;;;16.60;99.90;;;;;;4995158;28;20037;-93
2023/08/06 10:23:56;;;;;;;8.48;7.05;;;16.30;99.90;;;;;;4999976;28;20018;-89
2023/08/06 10:26:29;;;;;;;9.25;8.45;;;16.30;99.90;;;;;;4994352;28;20760;-90
2023/08/06 10:28:55;;;;;;;9.85;8.95;;;16.20;99.90;;;;;;4996369;28;20026;-89
2023/08/06 10:31:53;;;;;;;9.73;8.63;;;16.20;99.90;;;;;;5006373;28;20030;-92
2023/08/06 10:34:19;;;;;;;9.80;8.80;;;16.20;99.90;;;;;;4993278;28;20133;-88
2023/08/06 10:36:44;;;;;;;10.15;8.75;;;16.10;99.90;;;;;;4995680;28;20089;-89
2023/08/06 10:39:14;;;;;;;9.80;8.90;;;16.10;99.90;;;;;;4998815;28;20698;-85
2023/08/06 10:41:42;;;;;;;7.95;7.25;;;16.20;99.90;;;;;;4997051;28;20037;-93
2023/08/06 10:44:10;;;;;;;8.30;7.47;;;16.20;99.90;;;;;;4996178;28;20019;-89
2023/08/06 10:46:36;;;;;;;7.00;6.40;;;16.20;99.90;;;;;;4995712;28;20065;-89
2023/08/06 10:49:04;;;;;;;6.68;6.07;;;16.10;99.90;;;;;;4996870;28;20038;-88
2023/08/06 10:51:30;;;;;;;7.10;6.50;;;16.10;99.90;;;;;;4985178;28;20386;-85
2023/08/06 10:53:57;;;;;;;6.35;5.75;;;16.00;99.90;;;;;;4985642;28;20046;-91
2023/08/06 10:56:26;;;;;;;5.85;5.25;;;15.90;99.90;;;;;;4994510;28;20049;-92
2023/08/06 10:58:54;;;;;;;4.63;4.22;;;15.90;99.90;;;;;;4991714;28;20109;-83
2023/08/06 11:01:22;;;;;;;7.47;6.78;;;15.90;99.90;;;;;;5001705;28;20065;-84
2023/08/06 11:03:50;;;;;;;10.57;9.48;;;15.70;99.90;;;;;;4978796;28;20026;-86
2023/08/06 11:06:20;;;;;;;8.85;7.95;;;15.60;99.90;;;;;;4995273;28;20153;-88
2023/08/06 11:08:51;;;;;;;5.68;5.05;;;15.60;99.90;;;;;;4986413;28;20062;-87
2023/08/06 11:11:17;;;;;;;2.30;0.80;;;15.40;99.90;;;;;;5002058;28;20126;-88
2023/08/06 11:13:48;;;;;;;0.60;0.20;;;15.00;99.90;;;;;;4994769;28;20033;-88
2023/08/06 11:16:19;;;;;;;0.95;0.30;;;14.80;99.90;;;;;;5001640;28;20390;-89
2023/08/06 11:18:45;;;;;;;2.15;0.40;;;14.90;99.90;;;;;;4980622;28;20050;-92
2023/08/06 11:21:11;;;;;;;0.70;0.30;;;14.70;99.90;;;;;;4994121;28;20018;-82
2023/08/06 11:23:38;;;;;;;1.63;0.30;;;14.60;99.90;;;;;;4992381;28;20033;-90
2023/08/06 11:26:04;;;;;;;1.40;0.20;;;14.60;99.90;;;;;;4994216;28;20026;-90
2023/08/06 11:28:30;;;;;;;1.15;0.20;;;14.50;99.90;;;;;;4995049;28;20056;-90
2023/08/06 11:30:57;;;;;;;2.00;0.20;;;14.50;99.90;;;;;;4981156;28;20473;-91
2023/08/06 11:33:25;;;;;;;0.50;0.15;;;14.50;99.90;;;;;;4997420;28;20041;-92
2023/08/06 11:35:51;;;;;;;0.70;0.20;;;14.30;99.90;;;;;;4994250;28;20482;-89
2023/08/06 11:38:18;;;;;;;0.57;0.20;;;14.30;99.90;;;;;;4979024;28;20487;-82
2023/08/06 11:40:50;;;;;;;0.75;0.15;;;14.30;99.90;;;;;;4991122;28;21792;-84
2023/08/06 11:43:19;;;;;;;1.38;0.20;;;14.30;99.90;;;;;;4980403;28;20470;-84
2023/08/06 11:45:45;;;;;;;2.38;0.28;;;14.40;99.90;;;;;;4990351;28;20524;-82
2023/08/06 11:48:10;;;;;;;0.50;0.20;;;14.30;99.90;;;;;;4993257;28;20027;-82
2023/08/06 11:50:40;;;;;;;1.88;0.10;;;14.30;99.90;;;;;;4996624;28;20481;-89
2023/08/06 11:53:06;;;;;;;0.98;0.30;;;14.30;99.90;;;;;;4996232;28;20401;-80
2023/08/06 11:55:33;;;;;;;0.50;0.20;;;14.30;99.90;;;;;;4991003;28;20494;-82
2023/08/06 11:58:04;;;;;;;1.05;0.38;;;14.30;99.90;;;;;;4993983;28;20375;-80
2023/08/06 12:00:30;;;;;;;0.50;0.20;;;14.30;99.90;;;;;;4989038;28;20045;-87
2023/08/06 12:02:57;;;;;;;0.40;0.20;;;14.30;99.90;;;;;;4993689;28;20474;-82
2023/08/06 12:05:24;;;;;;;0.82;0.20;;;14.30;99.90;;;;;;4982820;28;20146;-84
2023/08/06 12:07:55;;;;;;;0.80;0.40;;;14.30;99.90;;;;;;4984095;28;20054;-82
2023/08/06 12:10:23;;;;;;;1.15;0.20;;;14.40;99.90;;;;;;4999599;28;20026;-79
2023/08/06 12:12:50;;;;;;;0.70;0.30;;;14.30;99.90;;;;;;4989606;28;20478;-81
2023/08/06 12:15:16;;;;;;;1.67;0.30;;;14.40;99.90;;;;;;4990714;28;20540;-84
2023/08/06 12:17:42;;;;;;;1.05;0.30;;;14.40;99.90;;;;;;4991166;28;20030;-82
2023/08/06 12:20:09;;;;;;;1.17;0.40;;;14.30;99.90;;;;;;4998518;28;20401;-81
2023/08/06 12:22:38;;;;;;;1.30;0.40;;;14.40;99.90;;;;;;4992717;28;20493;-80
2023/08/06 12:25:11;;;;;;;1.38;0.40;;;14.30;99.90;;;;;;4995038;28;20037;-80
2023/08/06 12:27:42;;;;;;;1.58;0.45;;;14.20;99.90;;;;;;4992218;28;20050;-81
2023/08/06 12:30:08;;;;;;;1.63;0.40;;;14.20;99.90;;;;;;4992064;28;20133;-87
2023/08/06 12:32:34;;;;;;;0.80;0.40;;;14.20;99.90;;;;;;4978980;28;20062;-80
2023/08/06 12:35:00;;;;;;;1.23;0.50;;;14.20;99.90;;;;;;4994140;28;20058;-82
2023/08/06 12:37:26;;;;;;;1.25;0.40;;;14.20;99.90;;;;;;5001104;28;20397;-82
2023/08/06 12:39:52;;;;;;;1.05;0.50;;;14.20;99.90;;;;;;4984604;28;20017;-83
2023/08/06 12:42:18;;;;;;;1.08;0.50;;;14.20;99.90;;;;;;5001188;28;20030;-81
2023/08/06 12:44:43;;;;;;;1.50;0.50;;;14.20;99.90;;;;;;4997012;28;20018;-86
2023/08/06 12:47:10;;;;;;;2.95;0.80;;;14.20;99.90;;;;;;4995770;28;20088;-83
2023/08/06 12:49:35;;;;;;;2.40;0.80;;;14.20;99.90;;;;;;4997287;28;20065;-82